Time;durP1;ratioP1;P1;durP2;ratioP2;P2;SDS_P1;SDS_P2;PMS_P1;PMS_P2;Temp;Humidity;BMP_temperature;BMP_pressure;BME280_temperature;BME280_humidity;BME280_pressure;Samples;Min_cycle;Max_cycle;Signal;HPM_P1;HPM_P2
2021/05/06 00:08:03;;;;;;;13.55;2.00;;;;;;;;;;5023321;28;20094;-67
2021/05/06 00:11:05;;;;;;;11.98;1.45;;;;;;;;;;5025100;28;20042;-67
2021/05/06 00:30:24;;;;;;;10.18;1.90;;;;;;;;;;5025141;28;20583;-67
2021/05/06 00:32:55;;;;;;;11.55;1.80;;;;;;;;;;5022436;28;20188;-67
2021/05/06 00:35:22;;;;;;;11.98;1.92;;;;;;;;;;5022492;28;20122;-67
2021/05/06 00:38:08;;;;;;;13.73;1.70;;;;;;;;;;5021571;28;20042;-67
2021/05/06 00:40:55;;;;;;;9.30;2.10;;;;;;;;;;5026789;28;20081;-67
2021/05/06 00:43:52;;;;;;;9.95;2.10;;;;;;;;;;5023388;28;20057;-67
2021/05/06 00:56:56;;;;;;;9.50;3.33;;;;;;;;;;5023164;28;20175;-67
2021/05/06 00:59:54;;;;;;;6.25;2.05;;;;;;;;;;5022576;28;20041;-67
2021/05/06 01:05:11;;;;;;;8.88;1.30;;;;;;;;;;5019278;28;20042;-67
2021/05/06 01:07:58;;;;;;;8.55;1.67;;;;;;;;;;5023478;28;20041;-67
2021/05/06 01:12:51;;;;;;;7.95;1.60;;;;;;;;;;5023052;28;20045;-67
2021/05/06 01:15:18;;;;;;;4.72;1.20;;;;;;;;;;5024305;28;20477;-67
2021/05/06 01:17:44;;;;;;;7.10;1.52;;;;;;;;;;5003415;28;20042;-67
2021/05/06 01:20:11;;;;;;;8.55;1.45;;;;;;;;;;5024438;28;20061;-67
2021/05/06 01:22:37;;;;;;;6.00;1.58;;;;;;;;;;5021534;28;20127;-67
2021/05/06 01:25:04;;;;;;;11.15;1.67;;;;;;;;;;5025076;28;20128;-67
2021/05/06 01:27:39;;;;;;;8.20;1.52;;;;;;;;;;5021616;28;20069;-67
2021/05/06 01:30:22;;;;;;;7.90;1.35;;;;;;;;;;5022541;28;20037;-67
2021/05/06 01:32:56;;;;;;;6.13;1.58;;;;;;;;;;5024143;28;20103;-66
2021/05/06 01:35:36;;;;;;;8.07;2.30;;;;;;;;;;5020958;28;20060;-67
2021/05/06 01:38:19;;;;;;;5.68;1.40;;;;;;;;;;5023081;28;20053;-67
2021/05/06 01:41:02;;;;;;;9.23;1.58;;;;;;;;;;5021740;28;20045;-67
2021/05/06 01:43:52;;;;;;;5.97;1.55;;;;;;;;;;5025427;28;20057;-67
2021/05/06 01:57:28;;;;;;;7.50;1.58;;;;;;;;;;5024272;28;20382;-67
2021/05/06 01:59:37;;;;;;;9.27;1.67;;;;;;;;;;5021882;28;20351;-67
2021/05/06 02:02:04;;;;;;;5.53;1.75;;;;;;;;;;5022922;28;20452;-67
2021/05/06 02:04:30;;;;;;;10.02;1.98;;;;;;;;;;5020663;28;20189;-67
2021/05/06 02:06:56;;;;;;;6.07;1.30;;;;;;;;;;5008590;28;20096;-66
2021/05/06 02:09:22;;;;;;;11.40;1.83;;;;;;;;;;5024445;28;20049;-67
2021/05/06 02:11:49;;;;;;;12.48;2.50;;;;;;;;;;5024055;28;20118;-67
2021/05/06 02:14:15;;;;;;;7.90;1.90;;;;;;;;;;5021713;28;20402;-68
2021/05/06 02:16:41;;;;;;;13.70;2.00;;;;;;;;;;5004697;28;20553;-66
2021/05/06 02:19:08;;;;;;;18.60;2.90;;;;;;;;;;5028158;28;20041;-67
2021/05/06 02:21:34;;;;;;;11.77;1.83;;;;;;;;;;5026773;28;20041;-67
2021/05/06 02:24:01;;;;;;;6.90;2.10;;;;;;;;;;5026431;28;20068;-67
2021/05/06 02:26:27;;;;;;;5.57;1.50;;;;;;;;;;5024797;28;20057;-67
2021/05/06 02:28:54;;;;;;;14.30;2.20;;;;;;;;;;5026665;28;20508;-66
2021/05/06 02:31:21;;;;;;;8.43;1.80;;;;;;;;;;5024160;28;20045;-67
2021/05/06 02:33:47;;;;;;;11.32;2.25;;;;;;;;;;5020809;28;20434;-67
2021/05/06 02:36:14;;;;;;;10.82;2.50;;;;;;;;;;5021000;28;20053;-67
2021/05/06 02:38:40;;;;;;;8.70;2.58;;;;;;;;;;5022966;28;20190;-66
2021/05/06 02:41:06;;;;;;;8.98;1.83;;;;;;;;;;5025906;28;20568;-67
2021/05/06 02:43:33;;;;;;;9.32;2.13;;;;;;;;;;5028103;28;20412;-67
2021/05/06 02:46:07;;;;;;;12.25;2.35;;;;;;;;;;5027569;28;20560;-67
2021/05/06 02:48:33;;;;;;;9.98;2.33;;;;;;;;;;5026788;28;20045;-67
2021/05/06 02:51:02;;;;;;;14.57;1.75;;;;;;;;;;5024669;28;20045;-66
2021/05/06 02:53:34;;;;;;;6.40;2.15;;;;;;;;;;5024527;28;20057;-67
2021/05/06 02:56:09;;;;;;;9.30;2.60;;;;;;;;;;5007917;28;20053;-67
2021/05/06 03:03:49;;;;;;;15.95;3.45;;;;;;;;;;5026836;28;21647;-67
2021/05/06 03:06:21;;;;;;;5.93;1.90;;;;;;;;;;5025084;28;20123;-66
2021/05/06 03:08:52;;;;;;;5.78;1.90;;;;;;;;;;5027484;28;20034;-67
2021/05/06 03:11:35;;;;;;;5.80;1.80;;;;;;;;;;5025065;28;20121;-66
2021/05/06 03:14:19;;;;;;;5.50;1.90;;;;;;;;;;5026383;28;20089;-66
2021/05/06 03:24:29;;;;;;;10.25;2.53;;;;;;;;;;5024327;28;20041;-67
2021/05/06 03:26:56;;;;;;;5.25;1.98;;;;;;;;;;5025929;28;20382;-67
2021/05/06 03:29:29;;;;;;;12.02;3.25;;;;;;;;;;5024685;28;20041;-67
2021/05/06 03:32:22;;;;;;;12.55;2.38;;;;;;;;;;5025776;28;20097;-67
2021/05/06 03:35:02;;;;;;;10.17;2.50;;;;;;;;;;5024302;28;20044;-66
2021/05/06 03:43:19;;;;;;;9.93;2.53;;;;;;;;;;5022593;28;20037;-66
2021/05/06 04:16:10;;;;;;;7.20;2.03;;;;;;;;;;5025175;28;20541;-66
2021/05/06 04:18:34;;;;;;;5.35;2.55;;;;;;;;;;5027261;28;20045;-67
2021/05/06 04:26:46;;;;;;;12.00;3.78;;;;;;;;;;5026944;28;20049;-67
2021/05/06 04:29:56;;;;;;;6.32;2.05;;;;;;;;;;5024522;28;20064;-67
2021/05/06 04:37:45;;;;;;;7.90;2.90;;;;;;;;;;5019633;28;20103;-66
2021/05/06 04:40:32;;;;;;;7.72;2.50;;;;;;;;;;5024433;28;20099;-67
2021/05/06 04:43:52;;;;;;;8.93;2.30;;;;;;;;;;5024096;28;20045;-67
2021/05/06 04:54:12;;;;;;;10.32;3.10;;;;;;;;;;5023256;28;20045;-67
2021/05/06 04:56:54;;;;;;;14.75;2.75;;;;;;;;;;5022345;28;20045;-67
2021/05/06 05:05:02;;;;;;;15.70;4.07;;;;;;;;;;5023121;28;20175;-66
2021/05/06 05:07:42;;;;;;;9.10;3.10;;;;;;;;;;5003499;28;20042;-67
2021/05/06 05:10:21;;;;;;;17.33;5.68;;;;;;;;;;5007932;28;20072;-67
2021/05/06 05:13:06;;;;;;;10.57;3.72;;;;;;;;;;5024050;28;20041;-67
2021/05/06 05:18:31;;;;;;;14.88;5.55;;;;;;;;;;5023196;28;20037;-67
2021/05/06 05:23:45;;;;;;;17.85;4.47;;;;;;;;;;5025216;28;20042;-67
2021/05/06 05:26:12;;;;;;;11.80;4.50;;;;;;;;;;5022103;28;20046;-66
2021/05/06 05:28:39;;;;;;;12.18;3.55;;;;;;;;;;5023069;28;20146;-67
2021/05/06 05:31:05;;;;;;;10.82;2.95;;;;;;;;;;5024713;28;20030;-67
2021/05/06 05:33:38;;;;;;;11.57;3.35;;;;;;;;;;5023184;28;20357;-67
2021/05/06 05:36:14;;;;;;;12.82;3.35;;;;;;;;;;5022345;28;20072;-67
2021/05/06 05:38:50;;;;;;;18.45;4.85;;;;;;;;;;5026245;28;20461;-67
2021/05/06 05:46:54;;;;;;;7.28;2.80;;;;;;;;;;5022854;28;20045;-67
2021/05/06 05:54:47;;;;;;;10.73;3.17;;;;;;;;;;5026042;28;20033;-66
2021/05/06 05:57:14;;;;;;;10.00;2.92;;;;;;;;;;5032362;28;20631;-67
2021/05/06 05:59:40;;;;;;;11.73;2.85;;;;;;;;;;5029885;28;20067;-67
2021/05/06 06:02:07;;;;;;;10.13;2.80;;;;;;;;;;5027121;28;20049;-67
2021/05/06 06:04:33;;;;;;;13.45;2.88;;;;;;;;;;5025033;28;20049;-66
2021/05/06 06:06:59;;;;;;;14.13;2.50;;;;;;;;;;5026612;28;20052;-66
2021/05/06 06:09:26;;;;;;;10.52;2.70;;;;;;;;;;5025814;28;20041;-67
2021/05/06 06:11:52;;;;;;;11.80;3.05;;;;;;;;;;5031291;28;20397;-66
2021/05/06 06:14:24;;;;;;;14.30;3.55;;;;;;;;;;5028576;28;20057;-66
2021/05/06 06:16:50;;;;;;;15.98;3.28;;;;;;;;;;5031067;28;20085;-67
2021/05/06 06:19:23;;;;;;;11.98;3.03;;;;;;;;;;5029570;28;20160;-67
2021/05/06 06:21:53;;;;;;;10.25;2.88;;;;;;;;;;5030927;28;20132;-68
2021/05/06 06:24:19;;;;;;;12.80;3.13;;;;;;;;;;5030376;28;20099;-67
2021/05/06 06:26:46;;;;;;;10.43;2.70;;;;;;;;;;5030405;28;20069;-68
2021/05/06 06:29:16;;;;;;;8.23;3.55;;;;;;;;;;5030440;28;20058;-68
2021/05/06 06:31:50;;;;;;;12.93;2.75;;;;;;;;;;5030375;28;20041;-68
2021/05/06 06:34:16;;;;;;;10.48;3.00;;;;;;;;;;5030343;28;20111;-68
2021/05/06 06:36:44;;;;;;;9.43;2.92;;;;;;;;;;5019417;28;20087;-67
2021/05/06 06:39:12;;;;;;;9.60;2.20;;;;;;;;;;5031538;28;20186;-68
2021/05/06 06:41:38;;;;;;;10.20;2.45;;;;;;;;;;5028591;28;20046;-68
2021/05/06 06:44:05;;;;;;;12.63;2.90;;;;;;;;;;5029413;28;20073;-68
2021/05/06 06:46:32;;;;;;;15.55;2.88;;;;;;;;;;5031441;28;20401;-69
2021/05/06 06:48:58;;;;;;;10.88;2.85;;;;;;;;;;5031659;28;20061;-68
2021/05/06 06:51:25;;;;;;;8.68;2.60;;;;;;;;;;5027675;28;20042;-67
2021/05/06 06:53:51;;;;;;;8.70;2.47;;;;;;;;;;5028412;28;20565;-67
2021/05/06 06:56:17;;;;;;;15.32;3.38;;;;;;;;;;5029497;28;20045;-68
2021/05/06 06:58:48;;;;;;;11.27;2.03;;;;;;;;;;5027565;28;20139;-68
2021/05/06 07:01:14;;;;;;;8.18;2.10;;;;;;;;;;5028071;28;20048;-68
2021/05/06 07:03:41;;;;;;;11.93;2.55;;;;;;;;;;5024831;28;20141;-68
2021/05/06 07:06:08;;;;;;;17.08;2.55;;;;;;;;;;5029857;28;20453;-67
2021/05/06 07:08:37;;;;;;;11.55;2.35;;;;;;;;;;5026610;28;20045;-68
2021/05/06 07:11:04;;;;;;;8.93;1.85;;;;;;;;;;5028926;28;20052;-69
2021/05/06 07:13:30;;;;;;;10.63;1.90;;;;;;;;;;5029874;28;20056;-69
2021/05/06 07:15:59;;;;;;;12.13;2.15;;;;;;;;;;5028582;28;20161;-69
2021/05/06 07:18:26;;;;;;;15.07;2.10;;;;;;;;;;5028845;28;20128;-69
2021/05/06 07:20:52;;;;;;;9.20;2.00;;;;;;;;;;5027247;28;20140;-69
2021/05/06 07:23:19;;;;;;;7.20;1.73;;;;;;;;;;5029277;28;20069;-69
2021/05/06 07:25:47;;;;;;;8.70;2.47;;;;;;;;;;5029496;28;20432;-69
2021/05/06 07:28:15;;;;;;;8.57;2.00;;;;;;;;;;5029073;28;20037;-69
2021/05/06 07:30:42;;;;;;;9.68;1.98;;;;;;;;;;5027349;28;20056;-68
2021/05/06 07:33:10;;;;;;;9.50;1.92;;;;;;;;;;5027409;28;20048;-68
2021/05/06 07:35:37;;;;;;;7.13;1.70;;;;;;;;;;5029121;28;20144;-69
2021/05/06 07:38:04;;;;;;;7.72;2.13;;;;;;;;;;5026514;28;20092;-68
2021/05/06 07:40:30;;;;;;;7.22;2.00;;;;;;;;;;5026236;28;20414;-68
2021/05/06 07:42:56;;;;;;;8.93;1.80;;;;;;;;;;5029336;28;20132;-68
2021/05/06 07:45:23;;;;;;;7.18;2.17;;;;;;;;;;5028560;28;20050;-68
2021/05/06 07:47:50;;;;;;;12.45;2.30;;;;;;;;;;5028548;28;20049;-68
2021/05/06 07:50:17;;;;;;;13.15;1.92;;;;;;;;;;5030287;28;20049;-68
2021/05/06 07:52:44;;;;;;;13.35;1.80;;;;;;;;;;5029289;28;20481;-68
2021/05/06 07:55:11;;;;;;;6.47;1.23;;;;;;;;;;5028567;28;20060;-68
2021/05/06 07:57:38;;;;;;;9.40;1.60;;;;;;;;;;5029929;28;20052;-83
2021/05/06 08:00:09;;;;;;;9.02;1.73;;;;;;;;;;5029519;28;20059;-84
2021/05/06 08:02:35;;;;;;;11.70;1.55;;;;;;;;;;5026761;28;20144;-77
2021/05/06 08:05:01;;;;;;;10.98;1.92;;;;;;;;;;5027919;28;20049;-77
2021/05/06 08:07:27;;;;;;;8.50;2.13;;;;;;;;;;5026620;28;20567;-77
2021/05/06 08:09:54;;;;;;;7.05;1.05;;;;;;;;;;5026050;28;20082;-78
2021/05/06 08:12:22;;;;;;;6.70;1.40;;;;;;;;;;5019714;28;20120;-77
2021/05/06 08:14:49;;;;;;;8.32;1.85;;;;;;;;;;5019455;28;20509;-77
2021/05/06 08:17:16;;;;;;;6.32;1.48;;;;;;;;;;5022980;28;20049;-77
2021/05/06 08:19:43;;;;;;;4.85;1.42;;;;;;;;;;5027191;28;20033;-77
2021/05/06 08:22:09;;;;;;;6.72;1.20;;;;;;;;;;5028106;28;20041;-78
2021/05/06 08:24:36;;;;;;;8.95;1.20;;;;;;;;;;5025149;28;20076;-77
2021/05/06 08:27:02;;;;;;;5.55;1.60;;;;;;;;;;5028880;28;20056;-77
2021/05/06 08:29:28;;;;;;;8.10;1.52;;;;;;;;;;5023829;28;20068;-77
2021/05/06 08:31:55;;;;;;;5.60;1.52;;;;;;;;;;5026782;28;20044;-77
2021/05/06 08:34:21;;;;;;;4.82;1.40;;;;;;;;;;5028507;28;20460;-77
2021/05/06 08:36:48;;;;;;;7.47;1.60;;;;;;;;;;5023274;28;20172;-78
2021/05/06 08:39:14;;;;;;;3.75;1.17;;;;;;;;;;5030603;28;20190;-78
2021/05/06 08:41:41;;;;;;;6.32;1.35;;;;;;;;;;5024514;28;20064;-77
2021/05/06 08:44:10;;;;;;;5.88;1.40;;;;;;;;;;5027216;28;20112;-77
2021/05/06 08:46:42;;;;;;;3.95;1.08;;;;;;;;;;5007235;28;20112;-77
2021/05/06 08:49:10;;;;;;;5.93;1.25;;;;;;;;;;5026559;28;20401;-77
2021/05/06 08:51:37;;;;;;;6.88;2.10;;;;;;;;;;5025874;28;20048;-77
2021/05/06 08:54:03;;;;;;;4.47;1.60;;;;;;;;;;5025870;28;20046;-77
2021/05/06 08:56:30;;;;;;;7.60;1.70;;;;;;;;;;5028452;28;20107;-77
2021/05/06 08:58:56;;;;;;;6.85;2.40;;;;;;;;;;5022085;28;20061;-78
2021/05/06 09:01:23;;;;;;;3.88;1.20;;;;;;;;;;5021662;28;20045;-77
2021/05/06 09:03:49;;;;;;;4.47;1.05;;;;;;;;;;5024929;28;20041;-77
2021/05/06 09:06:18;;;;;;;2.55;1.05;;;;;;;;;;5025699;28;20575;-78
2021/05/06 09:08:45;;;;;;;5.88;1.55;;;;;;;;;;5025367;28;20056;-78
2021/05/06 09:11:12;;;;;;;3.22;1.10;;;;;;;;;;5026183;28;20093;-77
2021/05/06 09:13:39;;;;;;;3.25;1.17;;;;;;;;;;5029917;28;20044;-78
2021/05/06 09:16:06;;;;;;;3.90;1.30;;;;;;;;;;5029669;28;20049;-78
2021/05/06 09:18:37;;;;;;;3.47;1.35;;;;;;;;;;5029781;28;20052;-78
2021/05/06 09:21:04;;;;;;;5.22;1.50;;;;;;;;;;5029940;28;20042;-78
2021/05/06 09:23:32;;;;;;;4.95;2.00;;;;;;;;;;5029728;28;20045;-78
2021/05/06 09:26:03;;;;;;;5.68;1.60;;;;;;;;;;5030289;28;20416;-78
2021/05/06 09:28:30;;;;;;;5.93;1.70;;;;;;;;;;5034075;28;20132;-78
2021/05/06 09:30:59;;;;;;;4.45;1.67;;;;;;;;;;5034404;28;20131;-78
2021/05/06 09:33:36;;;;;;;4.45;1.30;;;;;;;;;;5032793;28;20045;-78
2021/05/06 09:36:09;;;;;;;6.15;2.00;;;;;;;;;;5031739;28;20135;-78
2021/05/06 09:38:37;;;;;;;6.75;1.50;;;;;;;;;;5028717;28;20097;-78
2021/05/06 09:41:04;;;;;;;7.10;1.60;;;;;;;;;;5033344;28;20037;-78
2021/05/06 09:43:34;;;;;;;5.10;1.42;;;;;;;;;;5033363;28;20045;-78
2021/05/06 09:46:01;;;;;;;5.50;1.50;;;;;;;;;;5032703;28;20045;-78
2021/05/06 09:48:28;;;;;;;4.10;1.33;;;;;;;;;;5033647;28;20103;-78
2021/05/06 09:51:00;;;;;;;12.65;1.80;;;;;;;;;;5029960;28;20052;-78
2021/05/06 09:53:30;;;;;;;5.20;1.33;;;;;;;;;;5006061;28;20049;-78
2021/05/06 09:55:58;;;;;;;7.72;1.92;;;;;;;;;;5031352;28;20129;-78
2021/05/06 09:58:28;;;;;;;4.28;1.38;;;;;;;;;;5030241;28;20103;-78
2021/05/06 10:00:55;;;;;;;6.28;1.60;;;;;;;;;;5023319;28;20049;-78
2021/05/06 10:03:22;;;;;;;5.80;1.55;;;;;;;;;;5029102;28;20404;-78
2021/05/06 10:05:49;;;;;;;5.22;1.55;;;;;;;;;;5026545;28;20050;-77
2021/05/06 10:08:16;;;;;;;5.70;1.50;;;;;;;;;;5024897;28;20049;-78
2021/05/06 10:10:43;;;;;;;6.72;1.75;;;;;;;;;;5025785;28;20582;-78
2021/05/06 10:13:10;;;;;;;5.20;2.30;;;;;;;;;;5026122;28;20091;-86
2021/05/06 10:15:38;;;;;;;5.78;2.17;;;;;;;;;;5026637;28;20048;-78
2021/05/06 10:18:04;;;;;;;6.35;1.92;;;;;;;;;;5028713;28;20033;-78
2021/05/06 10:20:31;;;;;;;5.90;1.75;;;;;;;;;;5026859;28;20051;-78
2021/05/06 10:22:57;;;;;;;8.13;1.55;;;;;;;;;;5013268;28;20044;-78
2021/05/06 10:25:25;;;;;;;7.22;1.70;;;;;;;;;;5027671;28;20041;-77
2021/05/06 10:27:52;;;;;;;6.32;1.90;;;;;;;;;;5027472;28;20048;-77
2021/05/06 10:30:19;;;;;;;5.53;1.90;;;;;;;;;;5012809;28;20076;-77
2021/05/06 10:32:46;;;;;;;8.65;2.45;;;;;;;;;;5026158;28;20117;-76
2021/05/06 10:35:14;;;;;;;6.57;2.20;;;;;;;;;;5025929;28;20168;-77
2021/05/06 10:37:43;;;;;;;4.90;2.08;;;;;;;;;;5026237;28;20065;-77
2021/05/06 10:40:22;;;;;;;7.97;2.63;;;;;;;;;;5025239;28;20117;-76
2021/05/06 10:42:49;;;;;;;6.63;2.33;;;;;;;;;;5021925;28;20049;-76
2021/05/06 10:45:35;;;;;;;7.63;3.17;;;;;;;;;;5024715;28;20088;-76
2021/05/06 10:48:02;;;;;;;7.05;2.20;;;;;;;;;;5012913;28;20207;-77
2021/05/06 10:50:35;;;;;;;9.00;2.65;;;;;;;;;;5028167;28;20110;-77
2021/05/06 10:53:03;;;;;;;5.45;2.50;;;;;;;;;;5025075;28;20053;-77
2021/05/06 10:55:40;;;;;;;5.10;2.35;;;;;;;;;;5026552;28;20137;-76
2021/05/06 10:58:36;;;;;;;5.28;2.45;;;;;;;;;;5027048;28;20045;-76
2021/05/06 11:01:16;;;;;;;7.47;2.33;;;;;;;;;;5025041;28;20352;-76
2021/05/06 11:03:42;;;;;;;5.45;2.38;;;;;;;;;;5022710;28;20545;-77
2021/05/06 11:06:28;;;;;;;8.52;2.50;;;;;;;;;;5013272;28;20038;-77
2021/05/06 11:08:55;;;;;;;6.45;2.38;;;;;;;;;;5012843;28;20041;-76
2021/05/06 11:11:21;;;;;;;7.68;2.50;;;;;;;;;;5020339;28;20048;-77
2021/05/06 11:13:57;;;;;;;7.72;2.80;;;;;;;;;;5031066;28;20042;-77
2021/05/06 11:16:24;;;;;;;8.48;2.90;;;;;;;;;;5026608;28;20056;-88
2021/05/06 11:18:51;;;;;;;7.00;3.25;;;;;;;;;;5027642;28;20092;-88
2021/05/06 11:21:36;;;;;;;7.13;3.17;;;;;;;;;;5027912;28;20038;-77
2021/05/06 11:24:13;;;;;;;6.03;2.17;;;;;;;;;;5028015;28;20112;-77
2021/05/06 11:27:09;;;;;;;6.10;2.50;;;;;;;;;;5030632;28;20397;-77
2021/05/06 11:29:38;;;;;;;6.63;2.80;;;;;;;;;;5030680;28;20113;-78
2021/05/06 11:32:04;;;;;;;6.30;2.70;;;;;;;;;;5029385;28;20500;-77
2021/05/06 11:34:32;;;;;;;5.70;2.83;;;;;;;;;;5028809;28;20515;-76
2021/05/06 11:37:09;;;;;;;5.53;2.67;;;;;;;;;;5030509;28;20054;-76
2021/05/06 11:39:35;;;;;;;6.95;2.60;;;;;;;;;;5029278;28;20049;-76
2021/05/06 11:42:08;;;;;;;5.20;2.85;;;;;;;;;;5028129;28;20034;-76
2021/05/06 11:44:35;;;;;;;6.40;2.78;;;;;;;;;;5009937;28;20055;-76
2021/05/06 11:47:01;;;;;;;6.13;2.33;;;;;;;;;;5026459;28;20049;-76
2021/05/06 11:49:27;;;;;;;6.82;2.75;;;;;;;;;;5024640;28;20053;-76
2021/05/06 11:51:54;;;;;;;6.20;2.50;;;;;;;;;;5025428;28;20126;-76
2021/05/06 11:54:23;;;;;;;6.63;2.70;;;;;;;;;;5027031;28;20053;-76
2021/05/06 11:56:54;;;;;;;5.97;2.78;;;;;;;;;;5024585;28;20093;-76
2021/05/06 11:59:23;;;;;;;7.57;3.10;;;;;;;;;;5025589;28;20074;-76
2021/05/06 12:01:49;;;;;;;8.70;3.47;;;;;;;;;;5027906;28;20451;-76
2021/05/06 12:04:23;;;;;;;6.90;3.28;;;;;;;;;;5026105;28;20076;-74
2021/05/06 12:06:49;;;;;;;7.93;3.60;;;;;;;;;;5020213;28;20068;-76
2021/05/06 12:09:24;;;;;;;6.22;3.00;;;;;;;;;;5025418;28;20386;-71
2021/05/06 12:11:51;;;;;;;6.65;3.05;;;;;;;;;;5024395;28;20162;-75
2021/05/06 12:14:17;;;;;;;6.28;3.00;;;;;;;;;;5025709;28;20060;-75
2021/05/06 12:16:43;;;;;;;6.03;3.17;;;;;;;;;;5024836;28;20136;-75
2021/05/06 12:19:12;;;;;;;8.70;3.35;;;;;;;;;;5024226;28;20055;-75
2021/05/06 12:21:39;;;;;;;8.82;3.00;;;;;;;;;;5020503;28;20056;-75
2021/05/06 12:24:06;;;;;;;7.63;2.90;;;;;;;;;;5022694;28;20183;-76
2021/05/06 12:26:33;;;;;;;7.50;3.15;;;;;;;;;;5024396;28;20053;-76
2021/05/06 12:28:59;;;;;;;6.38;2.95;;;;;;;;;;5021787;28;20045;-76
2021/05/06 12:31:26;;;;;;;6.47;3.28;;;;;;;;;;5006233;28;20069;-76
2021/05/06 12:33:52;;;;;;;8.32;2.88;;;;;;;;;;5007372;28;20098;-76
2021/05/06 12:36:20;;;;;;;8.18;3.33;;;;;;;;;;5020501;28;20099;-76
2021/05/06 12:38:48;;;;;;;6.78;2.80;;;;;;;;;;5023578;28;20140;-76
2021/05/06 12:41:15;;;;;;;7.68;2.53;;;;;;;;;;5020478;28;20049;-76
2021/05/06 12:43:48;;;;;;;7.70;3.10;;;;;;;;;;5020604;28;20042;-76
2021/05/06 12:46:14;;;;;;;8.18;3.03;;;;;;;;;;5024476;28;20061;-76
2021/05/06 12:48:42;;;;;;;7.03;2.85;;;;;;;;;;5022872;28;20099;-76
2021/05/06 12:51:09;;;;;;;6.32;2.80;;;;;;;;;;5023713;28;20033;-76
2021/05/06 12:53:35;;;;;;;6.20;2.80;;;;;;;;;;5008401;28;20047;-76
2021/05/06 12:56:03;;;;;;;7.40;2.90;;;;;;;;;;5024857;28;20140;-82
2021/05/06 12:58:30;;;;;;;5.15;2.55;;;;;;;;;;5028096;28;20049;-81
2021/05/06 13:00:57;;;;;;;8.10;2.90;;;;;;;;;;5027656;28;20133;-73
2021/05/06 13:03:27;;;;;;;7.22;3.20;;;;;;;;;;5024524;28;20041;-77
2021/05/06 13:05:53;;;;;;;8.30;3.00;;;;;;;;;;5024475;28;20268;-77
2021/05/06 13:08:33;;;;;;;7.10;4.40;;;;;;;;;;5022960;28;20065;-77
2021/05/06 13:11:01;;;;;;;7.43;3.35;;;;;;;;;;5027351;28;20060;-77
2021/05/06 13:13:38;;;;;;;5.22;2.92;;;;;;;;;;5026338;28;20033;-76
2021/05/06 13:16:05;;;;;;;7.28;3.00;;;;;;;;;;5006407;28;20200;-77
2021/05/06 13:18:31;;;;;;;5.40;3.00;;;;;;;;;;5019013;28;20110;-77
2021/05/06 13:20:58;;;;;;;7.43;3.45;;;;;;;;;;5021588;28;20049;-77
2021/05/06 13:23:28;;;;;;;8.57;3.55;;;;;;;;;;5005976;28;20109;-75
2021/05/06 13:25:56;;;;;;;9.00;3.30;;;;;;;;;;5025003;28;20045;-77
2021/05/06 13:28:43;;;;;;;8.10;3.42;;;;;;;;;;5022472;28;20103;-77
2021/05/06 13:31:12;;;;;;;6.20;3.17;;;;;;;;;;5018790;28;20070;-77
2021/05/06 13:33:39;;;;;;;5.28;3.15;;;;;;;;;;5021099;28;20115;-77
2021/05/06 13:36:08;;;;;;;6.72;3.60;;;;;;;;;;5025233;28;20619;-77
2021/05/06 13:38:48;;;;;;;11.90;4.00;;;;;;;;;;5026238;28;20045;-77
2021/05/06 13:41:15;;;;;;;7.80;3.97;;;;;;;;;;5023243;28;20053;-77
2021/05/06 13:43:41;;;;;;;5.95;3.53;;;;;;;;;;5025742;28;20041;-77
2021/05/06 13:46:09;;;;;;;9.18;3.72;;;;;;;;;;5024074;28;20512;-77
2021/05/06 13:48:36;;;;;;;7.68;4.05;;;;;;;;;;5026077;28;20051;-77
2021/05/06 13:51:02;;;;;;;7.63;4.43;;;;;;;;;;5026520;28;20373;-77
2021/05/06 13:53:28;;;;;;;5.65;3.45;;;;;;;;;;5025618;28;20076;-77
2021/05/06 13:55:54;;;;;;;7.15;3.20;;;;;;;;;;5026498;28;20123;-77
2021/05/06 13:58:21;;;;;;;5.70;3.40;;;;;;;;;;5026218;28;20046;-77
2021/05/06 14:00:48;;;;;;;10.75;3.50;;;;;;;;;;5025276;28;20076;-77
2021/05/06 14:03:14;;;;;;;6.40;2.60;;;;;;;;;;5026177;28;20065;-77
2021/05/06 14:05:40;;;;;;;7.53;3.53;;;;;;;;;;5024268;28;20152;-77
2021/05/06 14:08:06;;;;;;;8.38;3.47;;;;;;;;;;5026816;28;20052;-77
2021/05/06 14:10:33;;;;;;;8.50;3.20;;;;;;;;;;5026969;28;20045;-77
2021/05/06 14:12:59;;;;;;;8.60;3.30;;;;;;;;;;5029367;28;20049;-77
2021/05/06 14:15:25;;;;;;;7.00;3.95;;;;;;;;;;5030431;28;20041;-77
2021/05/06 14:17:52;;;;;;;6.28;3.25;;;;;;;;;;5030259;28;20330;-77
2021/05/06 14:20:20;;;;;;;8.40;3.00;;;;;;;;;;5029876;28;20053;-77
2021/05/06 14:22:46;;;;;;;11.20;4.07;;;;;;;;;;5027933;28;20469;-77
2021/05/06 14:25:12;;;;;;;5.75;3.28;;;;;;;;;;5013410;28;20210;-77
2021/05/06 14:27:39;;;;;;;7.47;2.90;;;;;;;;;;5028859;28;20049;-77
2021/05/06 14:30:05;;;;;;;10.02;3.95;;;;;;;;;;5030633;28;20060;-76
2021/05/06 14:32:32;;;;;;;4.30;2.83;;;;;;;;;;5030548;28;20049;-79
2021/05/06 14:34:58;;;;;;;5.68;3.30;;;;;;;;;;5029552;28;20061;-77
2021/05/06 14:37:24;;;;;;;7.57;3.22;;;;;;;;;;5029695;28;20496;-76
2021/05/06 14:39:51;;;;;;;5.65;3.08;;;;;;;;;;5027102;28;20044;-78
2021/05/06 14:42:17;;;;;;;5.28;3.10;;;;;;;;;;5028182;28;20183;-77
2021/05/06 14:44:44;;;;;;;5.43;2.75;;;;;;;;;;5029290;28;20068;-77
2021/05/06 14:47:10;;;;;;;8.60;3.05;;;;;;;;;;5029926;28;20041;-77
2021/05/06 14:49:37;;;;;;;6.55;2.97;;;;;;;;;;5029385;28;20408;-78
2021/05/06 14:52:03;;;;;;;7.00;3.20;;;;;;;;;;5031828;28;20049;-95
2021/05/06 14:54:29;;;;;;;5.55;3.10;;;;;;;;;;5013196;28;20400;-81
2021/05/06 14:56:55;;;;;;;6.65;3.53;;;;;;;;;;5023934;28;20045;-77
2021/05/06 14:59:22;;;;;;;8.23;3.00;;;;;;;;;;5012080;28;20120;-77
2021/05/06 15:01:49;;;;;;;5.80;2.63;;;;;;;;;;5028518;28;20540;-78
2021/05/06 15:04:15;;;;;;;6.88;3.20;;;;;;;;;;5028639;28;20041;-78
2021/05/06 15:06:41;;;;;;;4.90;2.58;;;;;;;;;;5030344;28;20469;-78
2021/05/06 15:09:07;;;;;;;11.07;2.85;;;;;;;;;;5030444;28;20077;-78
2021/05/06 15:11:34;;;;;;;7.20;3.08;;;;;;;;;;5010874;28;20063;-78
2021/05/06 15:14:00;;;;;;;11.13;3.92;;;;;;;;;;5029708;28;20137;-79
2021/05/06 15:16:27;;;;;;;7.80;3.00;;;;;;;;;;5027197;28;20199;-78
2021/05/06 15:18:53;;;;;;;4.47;2.38;;;;;;;;;;5030390;28;20095;-79
2021/05/06 15:21:20;;;;;;;6.07;2.60;;;;;;;;;;5027500;28;20523;-84
2021/05/06 15:23:46;;;;;;;10.05;2.85;;;;;;;;;;5027176;28;20460;-78
2021/05/06 15:26:12;;;;;;;6.13;2.75;;;;;;;;;;5029492;28;20045;-78
2021/05/06 15:28:38;;;;;;;7.85;3.03;;;;;;;;;;5031361;28;20064;-77
2021/05/06 15:31:06;;;;;;;5.85;2.38;;;;;;;;;;5028500;28;20111;-78
2021/05/06 15:33:32;;;;;;;5.03;2.50;;;;;;;;;;5026505;28;20048;-78
2021/05/06 15:35:59;;;;;;;6.65;2.40;;;;;;;;;;5028701;28;20056;-77
2021/05/06 15:38:25;;;;;;;5.15;2.35;;;;;;;;;;5026343;28;20038;-78
2021/05/06 15:40:52;;;;;;;6.47;3.05;;;;;;;;;;5029593;28;20125;-77
2021/05/06 15:43:19;;;;;;;6.18;2.80;;;;;;;;;;5026492;28;20062;-77
2021/05/06 15:45:45;;;;;;;7.55;3.40;;;;;;;;;;5029872;28;20128;-77
2021/05/06 15:48:12;;;;;;;4.78;2.72;;;;;;;;;;5027531;28;20061;-77
2021/05/06 15:50:39;;;;;;;6.88;2.97;;;;;;;;;;5030055;28;20041;-76
2021/05/06 15:53:05;;;;;;;8.20;2.60;;;;;;;;;;5027437;28;20481;-77
2021/05/06 15:55:33;;;;;;;6.68;2.45;;;;;;;;;;5028579;28;20070;-77
2021/05/06 15:58:02;;;;;;;6.00;2.95;;;;;;;;;;5029438;28;20611;-77
2021/05/06 16:00:30;;;;;;;7.82;2.97;;;;;;;;;;5025693;28;20049;-77
2021/05/06 16:03:00;;;;;;;6.72;2.75;;;;;;;;;;5027673;28;20049;-77
2021/05/06 16:05:28;;;;;;;9.65;3.20;;;;;;;;;;5024835;28;20037;-77
2021/05/06 16:07:55;;;;;;;10.32;3.65;;;;;;;;;;5029232;28;20112;-77
2021/05/06 16:10:22;;;;;;;12.05;3.97;;;;;;;;;;5030215;28;20046;-76
2021/05/06 16:12:48;;;;;;;8.30;3.53;;;;;;;;;;5024309;28;20448;-76
2021/05/06 16:15:15;;;;;;;7.72;3.78;;;;;;;;;;5029430;28;20099;-77
2021/05/06 16:17:42;;;;;;;8.88;3.75;;;;;;;;;;5027637;28;20525;-76
2021/05/06 16:20:15;;;;;;;10.15;4.43;;;;;;;;;;5010699;28;20427;-76
2021/05/06 16:22:42;;;;;;;12.32;5.15;;;;;;;;;;5028217;28;20539;-77
2021/05/06 16:25:09;;;;;;;11.05;4.07;;;;;;;;;;5026213;28;20103;-78
2021/05/06 16:27:37;;;;;;;11.80;4.53;;;;;;;;;;5028772;28;20136;-77
2021/05/06 16:30:05;;;;;;;17.65;5.88;;;;;;;;;;5026435;28;20172;-76
2021/05/06 16:32:32;;;;;;;11.00;4.20;;;;;;;;;;5009315;28;20130;-77
2021/05/06 16:35:00;;;;;;;8.05;3.53;;;;;;;;;;5027822;28;20040;-76
2021/05/06 16:37:31;;;;;;;12.35;3.75;;;;;;;;;;5027324;28;20144;-74
2021/05/06 16:44:52;;;;;;;6.95;2.60;;;;;;;;;;5018845;28;20049;-77
2021/05/06 16:47:19;;;;;;;6.95;3.00;;;;;;;;;;5021617;28;20057;-79
2021/05/06 16:49:45;;;;;;;6.57;2.55;;;;;;;;;;5020108;28;20056;-79
2021/05/06 16:52:11;;;;;;;5.95;2.50;;;;;;;;;;5005968;28;20088;-77
2021/05/06 16:54:38;;;;;;;6.95;2.65;;;;;;;;;;5019928;28;20044;-77
2021/05/06 16:57:04;;;;;;;9.25;2.55;;;;;;;;;;5024163;28;20068;-77
2021/05/06 16:59:31;;;;;;;7.80;2.30;;;;;;;;;;5022810;28;20401;-78
2021/05/06 17:01:57;;;;;;;6.55;2.38;;;;;;;;;;5024231;28;20489;-78
2021/05/06 17:04:24;;;;;;;9.18;2.95;;;;;;;;;;5022479;28;20120;-78
2021/05/06 17:06:55;;;;;;;9.77;2.42;;;;;;;;;;5023860;28;20129;-78
2021/05/06 17:09:22;;;;;;;6.85;2.65;;;;;;;;;;5022154;28;20092;-77
2021/05/06 17:11:48;;;;;;;5.88;3.05;;;;;;;;;;5022146;28;20073;-78
2021/05/06 17:14:14;;;;;;;8.00;2.35;;;;;;;;;;5021593;28;20121;-77
2021/05/06 17:16:41;;;;;;;9.55;3.28;;;;;;;;;;5023437;28;20473;-77
2021/05/06 17:19:07;;;;;;;6.70;2.67;;;;;;;;;;5020474;28;20051;-77